createdAt,value
2022-12-08T00:00:00.001Z,97766.44
2022-12-08T00:01:10.708Z,97767.92
2022-12-08T00:02:13.904Z,97769.02
2022-12-08T00:03:15.999Z,97764.81
2022-12-08T00:04:17.872Z,97764.09
2022-12-08T00:05:38.063Z,97763.55
2022-12-08T00:07:02.907Z,97762.54
2022-12-08T00:08:23.492Z,97764.02
2022-12-08T00:09:25.462Z,97765.05
2022-12-08T00:10:48.351Z,97771.94
2022-12-08T00:12:04.136Z,97772.52
2022-12-08T00:13:05.806Z,97772.10
2022-12-08T00:14:07.545Z,97774.88
2022-12-08T00:15:09.611Z,97770.86
2022-12-08T00:16:12.298Z,97774.13
2022-12-08T00:17:16.531Z,97772.02
2022-12-08T00:18:18.309Z,97778.61
2022-12-08T00:19:20.827Z,97775.03
2022-12-08T00:20:22.547Z,97778.32
2022-12-08T00:21:24.303Z,97785.42
2022-12-08T00:22:26.078Z,97780.20
2022-12-08T00:23:28.256Z,97786.35
2022-12-08T00:24:33.277Z,97784.41
2022-12-08T00:25:38.100Z,97792.45
2022-12-08T00:26:40.414Z,97791.88
2022-12-08T00:27:42.169Z,97786.43
2022-12-08T00:28:43.969Z,97791.30
2022-12-08T00:29:46.083Z,97794.69
2022-12-08T00:30:48.168Z,97793.46
2022-12-08T00:31:50.652Z,97796.20
2022-12-08T00:32:52.457Z,97793.51
2022-12-08T00:33:54.186Z,97795.55
2022-12-08T00:34:56.324Z,97795.10
2022-12-08T00:35:58.168Z,97796.33
2022-12-08T00:37:00.554Z,97797.60
2022-12-08T00:38:02.259Z,97793.67
2022-12-08T00:39:04.019Z,97795.95
2022-12-08T00:40:06.799Z,97798.23
2022-12-08T00:41:18.341Z,97799.70
2022-12-08T00:42:20.283Z,97799.67
2022-12-08T00:43:22.164Z,97799.89
2022-12-08T00:44:23.985Z,97802.40
2022-12-08T00:45:25.920Z,97800.77
2022-12-08T00:46:27.711Z,97802.64
2022-12-08T00:47:29.677Z,97801.09
2022-12-08T00:48:31.403Z,97801.09
2022-12-08T00:49:33.238Z,97804.23
2022-12-08T00:50:35.054Z,97799.98
2022-12-08T00:51:37.664Z,97800.63
2022-12-08T00:52:39.607Z,97802.74
2022-12-08T00:53:41.447Z,97803.66
2022-12-08T00:54:43.197Z,97806.70
2022-12-08T00:55:44.992Z,97807.55
2022-12-08T00:56:46.730Z,97811.09
2022-12-08T00:57:48.479Z,97810.48
2022-12-08T00:58:50.517Z,97813.45
2022-12-08T00:59:52.257Z,97814.85
2022-12-08T01:00:54.159Z,97814.23
2022-12-08T01:01:56.044Z,97817.54
2022-12-08T01:02:59.107Z,97816.80
2022-12-08T01:04:05.351Z,97814.52
2022-12-08T01:05:07.384Z,97817.08
2022-12-08T01:06:10.437Z,97818.92
2022-12-08T01:07:12.252Z,97821.41
2022-12-08T01:08:14.063Z,97822.36
2022-12-08T01:09:17.799Z,97825.85
2022-12-08T01:10:19.500Z,97827.45
2022-12-08T01:11:21.493Z,97828.71
2022-12-08T01:12:23.966Z,97830.19
2022-12-08T01:13:25.643Z,97832.27
2022-12-08T01:14:27.512Z,97834.14
2022-12-08T01:15:29.235Z,97834.71
2022-12-08T01:16:34.194Z,97836.16
2022-12-08T01:17:38.099Z,97836.54
2022-12-08T01:18:39.852Z,97836.36
2022-12-08T01:19:41.582Z,97832.45
2022-12-08T01:20:43.285Z,97830.95
2022-12-08T01:21:46.481Z,97829.70
2022-12-08T01:22:48.558Z,97825.84
2022-12-08T01:23:50.825Z,97829.57
2022-12-08T01:24:52.681Z,97827.05
2022-12-08T01:25:54.414Z,97827.54
2022-12-08T01:26:56.220Z,97824.69
2022-12-08T01:27:57.927Z,97827.67
2022-12-08T01:28:59.955Z,97827.92
2022-12-08T01:30:02.215Z,97824.77
2022-12-08T01:31:04.641Z,97829.86
2022-12-08T01:32:08.606Z,97828.31
2022-12-08T01:33:10.327Z,97829.30
2022-12-08T01:34:12.637Z,97829.98
2022-12-08T01:35:14.549Z,97835.44
2022-12-08T01:36:22.749Z,97835.95
2022-12-08T01:37:24.459Z,97837.33
2022-12-08T01:38:26.384Z,97835.14
2022-12-08T01:39:28.214Z,97842.52
2022-12-08T01:40:29.959Z,97838.52
2022-12-08T01:41:34.674Z,97838.67
2022-12-08T01:42:38.309Z,97834.44
2022-12-08T01:43:58.733Z,97837.43
2022-12-08T01:45:03.347Z,97839.50
2022-12-08T01:46:06.236Z,97840.27
2022-12-08T01:47:09.366Z,97837.63
2022-12-08T01:48:19.468Z,97834.48
2022-12-08T01:49:28.025Z,97831.19
2022-12-08T01:50:31.365Z,97835.13
2022-12-08T01:51:50.710Z,97831.90
2022-12-08T01:52:57.556Z,97835.95
2022-12-08T01:53:59.761Z,97833.61
2022-12-08T01:55:13.154Z,97833.01
2022-12-08T01:56:32.380Z,97835.04
2022-12-08T01:57:42.913Z,97838.21
2022-12-08T01:58:49.858Z,97838.98
2022-12-08T02:00:03.126Z,97835.88
2022-12-08T02:01:10.581Z,97835.23
2022-12-08T02:02:12.712Z,97839.80
2022-12-08T02:03:29.459Z,97837.27
2022-12-08T02:04:31.165Z,97843.74
2022-12-08T02:05:39.698Z,97839.80
2022-12-08T02:06:45.515Z,97843.41
2022-12-08T02:07:49.371Z,97843.83
2022-12-08T02:08:52.738Z,97842.23
2022-12-08T02:09:55.174Z,97844.69
2022-12-08T02:10:57.152Z,97845.55
2022-12-08T02:12:00.707Z,97843.92
2022-12-08T02:13:04.808Z,97846.58
2022-12-08T02:14:10.271Z,97847.60
2022-12-08T02:15:12.911Z,97851.68
2022-12-08T02:16:57.977Z,97848.54
2022-12-08T02:18:11.698Z,97846.39
2022-12-08T02:19:47.437Z,97849.29
2022-12-08T02:20:51.778Z,97854.30
2022-12-08T02:22:17.987Z,97854.08
2022-12-08T02:23:47.949Z,97847.64
2022-12-08T02:25:24.285Z,97852.67
2022-12-08T02:26:55.937Z,97848.70
2022-12-08T02:28:39.339Z,97847.23
2022-12-08T02:30:08.119Z,97847.94
2022-12-08T02:31:41.796Z,97843.84
2022-12-08T02:33:02.704Z,97847.42
2022-12-08T02:34:13.551Z,97842.59
2022-12-08T02:35:23.987Z,97847.58
2022-12-08T02:36:39.858Z,97845.80
2022-12-08T02:37:55.261Z,97847.46
2022-12-08T02:39:25.735Z,97846.85
2022-12-08T02:40:53.167Z,97844.45
2022-12-08T02:42:22.080Z,97850.70
2022-12-08T02:43:34.431Z,97848.86
2022-12-08T02:44:45.194Z,97847.66
2022-12-08T02:45:59.436Z,97851.26
2022-12-08T02:47:14.023Z,97852.07
2022-12-08T02:48:15.875Z,97853.95
2022-12-08T02:49:17.743Z,97852.11
2022-12-08T02:50:19.985Z,97855.09
2022-12-08T02:51:21.805Z,97856.98
2022-12-08T02:52:23.449Z,97853.63
2022-12-08T02:53:31.006Z,97852.33
2022-12-08T02:54:35.583Z,97851.44
2022-12-08T02:56:08.298Z,97853.60
2022-12-08T02:57:12.701Z,97859.79
2022-12-08T02:58:32.641Z,97858.11
2022-12-08T03:00:02.563Z,97859.54
2022-12-08T03:01:26.334Z,97855.36
2022-12-08T03:03:02.077Z,97863.48
2022-12-08T03:04:33.366Z,97862.42
2022-12-08T03:05:50.003Z,97861.91
2022-12-08T03:06:59.355Z,97861.48
2022-12-08T03:08:22.758Z,97861.39
2022-12-08T03:09:41.619Z,97858.29
2022-12-08T03:10:53.011Z,97860.77
2022-12-08T03:12:18.317Z,97862.20
2022-12-08T03:13:28.662Z,97862.42
2022-12-08T03:14:33.772Z,97860.52
2022-12-08T03:15:38.928Z,97865.16
2022-12-08T03:16:47.227Z,97865.16
2022-12-08T03:17:57.767Z,97866.98
2022-12-08T03:19:11.159Z,97871.84
2022-12-08T03:20:19.814Z,97868.18
2022-12-08T03:21:22.987Z,97868.91
2022-12-08T03:22:27.720Z,97867.81
2022-12-08T03:23:31.199Z,97861.54
2022-12-08T03:24:38.070Z,97866.02
2022-12-08T03:25:52.229Z,97866.05
2022-12-08T03:27:02.742Z,97864.55
2022-12-08T03:28:05.944Z,97869.41
2022-12-08T03:29:08.129Z,97870.86
2022-12-08T03:30:10.416Z,97869.69
2022-12-08T03:31:15.813Z,97868.14
2022-12-08T03:32:35.093Z,97869.29
2022-12-08T03:33:43.380Z,97867.95
2022-12-08T03:34:49.798Z,97868.48
2022-12-08T03:35:54.390Z,97870.04
2022-12-08T03:36:56.141Z,97869.09
2022-12-08T03:38:07.502Z,97867.45
2022-12-08T03:39:09.288Z,97864.39
2022-12-08T03:40:15.276Z,97864.27
2022-12-08T03:41:19.909Z,97858.92
2022-12-08T03:42:21.652Z,97854.70
2022-12-08T03:43:23.387Z,97855.39
2022-12-08T03:44:25.106Z,97856.28
2022-12-08T03:45:26.966Z,97859.42
2022-12-08T03:47:31.129Z,97860.17
2022-12-08T03:48:32.840Z,97860.49
2022-12-08T03:49:34.553Z,97863.64
2022-12-08T03:50:36.262Z,97864.62
2022-12-08T03:51:37.974Z,97865.56
2022-12-08T03:52:39.789Z,97870.65
2022-12-08T03:53:41.777Z,97869.48
2022-12-08T03:54:43.580Z,97873.52
2022-12-08T03:55:45.285Z,97877.92
2022-12-08T03:56:47.047Z,97880.33
2022-12-08T03:57:48.818Z,97887.46
2022-12-08T03:58:51.165Z,97885.11
2022-12-08T03:59:52.930Z,97879.04
2022-12-08T04:00:54.651Z,97874.32
2022-12-08T04:01:56.436Z,97871.07
2022-12-08T04:02:58.281Z,97872.48
2022-12-08T04:04:00.164Z,97874.39
2022-12-08T04:05:01.880Z,97875.44
2022-12-08T04:06:03.781Z,97875.89
2022-12-08T04:07:05.502Z,97878.86
2022-12-08T04:08:07.276Z,97869.86
2022-12-08T04:09:09.011Z,97874.38
2022-12-08T04:10:10.948Z,97878.45
2022-12-08T04:11:12.707Z,97875.85
2022-12-08T04:12:14.466Z,97874.42
2022-12-08T04:13:16.163Z,97874.51
2022-12-08T04:14:17.941Z,97875.89
2022-12-08T04:15:19.896Z,97878.54
2022-12-08T04:16:27.834Z,97878.67
2022-12-08T04:17:29.617Z,97877.33
2022-12-08T04:18:32.473Z,97873.02
2022-12-08T04:19:34.281Z,97876.51
2022-12-08T04:20:39.400Z,97875.28
2022-12-08T04:21:41.087Z,97875.85
2022-12-08T04:22:42.811Z,97871.90
2022-12-08T04:23:45.727Z,97874.70
2022-12-08T04:24:48.033Z,97875.40
2022-12-08T04:25:52.372Z,97877.11
2022-12-08T04:26:54.091Z,97875.43
2022-12-08T04:27:56.356Z,97875.22
2022-12-08T04:28:58.207Z,97872.88
2022-12-08T04:29:59.928Z,97875.14
2022-12-08T04:31:02.072Z,97875.34
2022-12-08T04:32:04.134Z,97874.25
2022-12-08T04:33:05.914Z,97874.16
2022-12-08T04:34:07.800Z,97872.02
2022-12-08T04:35:09.608Z,97876.27
2022-12-08T04:36:11.432Z,97876.54
2022-12-08T04:37:13.198Z,97877.73
2022-12-08T04:38:17.344Z,97878.11
2022-12-08T04:39:19.054Z,97882.12
2022-12-08T04:40:20.833Z,97881.51
2022-12-08T04:41:22.718Z,97881.10
2022-12-08T04:42:24.550Z,97884.16
2022-12-08T04:43:26.363Z,97884.94
2022-12-08T04:44:28.170Z,97884.41
2022-12-08T04:45:30.708Z,97885.36
2022-12-08T04:46:32.512Z,97887.39
2022-12-08T04:47:34.945Z,97888.50
2022-12-08T04:48:38.966Z,97888.45
2022-12-08T04:49:40.770Z,97892.49
2022-12-08T04:50:44.638Z,97893.80
2022-12-08T04:51:46.438Z,97888.27
2022-12-08T04:52:48.182Z,97888.54
2022-12-08T04:53:50.015Z,97888.62
2022-12-08T04:54:51.784Z,97889.67
2022-12-08T04:55:53.515Z,97885.52
2022-12-08T04:56:55.313Z,97885.09
2022-12-08T04:57:57.094Z,97882.48
2022-12-08T04:58:58.831Z,97882.95
2022-12-08T05:00:00.590Z,97883.55
2022-12-08T05:01:02.450Z,97883.11
2022-12-08T05:02:04.452Z,97881.27
2022-12-08T05:03:06.707Z,97881.32
2022-12-08T05:04:08.549Z,97879.45
2022-12-08T05:05:10.698Z,97881.08
2022-12-08T05:06:14.147Z,97885.04
2022-12-08T05:07:16.071Z,97891.06
2022-12-08T05:08:17.890Z,97897.05
2022-12-08T05:09:19.655Z,97895.19
2022-12-08T05:10:21.500Z,97899.42
2022-12-08T05:11:23.245Z,97895.55
2022-12-08T05:12:25.249Z,97893.67
2022-12-08T05:13:27.010Z,97890.13
2022-12-08T05:14:28.730Z,97889.56
2022-12-08T05:15:30.459Z,97888.34
2022-12-08T05:16:32.317Z,97889.36
2022-12-08T05:17:34.220Z,97884.92
2022-12-08T05:18:37.716Z,97883.88
2022-12-08T05:19:39.488Z,97880.66
2022-12-08T05:20:41.239Z,97877.97
2022-12-08T05:21:44.064Z,97877.49
2022-12-08T05:22:45.975Z,97880.13
2022-12-08T05:23:47.716Z,97884.77
2022-12-08T05:24:49.452Z,97883.77
2022-12-08T05:25:51.239Z,97882.95
2022-12-08T05:26:52.985Z,97885.35
2022-12-08T05:28:06.234Z,97887.71
2022-12-08T05:29:16.661Z,97886.80
2022-12-08T05:30:18.551Z,97886.11
2022-12-08T05:31:20.327Z,97882.00
2022-12-08T05:32:22.141Z,97881.35
2022-12-08T05:33:23.908Z,97884.38
2022-12-08T05:34:25.763Z,97884.05
2022-12-08T05:35:27.477Z,97881.52
2022-12-08T05:36:29.223Z,97880.88
2022-12-08T05:37:31.047Z,97879.09
2022-12-08T05:38:32.996Z,97881.32
2022-12-08T05:39:34.906Z,97882.48
2022-12-08T05:40:40.441Z,97879.30
2022-12-08T05:41:42.498Z,97880.16
2022-12-08T05:42:44.278Z,97880.80
2022-12-08T05:43:48.265Z,97882.95
2022-12-08T05:44:50.025Z,97886.66
2022-12-08T05:45:51.867Z,97884.65
2022-12-08T05:46:53.826Z,97885.63
2022-12-08T05:47:55.614Z,97888.61
2022-12-08T05:49:00.343Z,97892.41
2022-12-08T05:50:02.565Z,97893.11
2022-12-08T05:51:05.239Z,97890.53
2022-12-08T05:52:07.098Z,97895.39
2022-12-08T05:53:08.854Z,97896.85
2022-12-08T05:54:10.746Z,97893.35
2022-12-08T05:55:12.488Z,97897.18
2022-12-08T05:56:15.449Z,97893.10
2022-12-08T05:57:17.226Z,97889.80
2022-12-08T05:58:21.193Z,97893.08
2022-12-08T05:59:23.212Z,97894.58
2022-12-08T06:00:25.007Z,97893.31
2022-12-08T06:01:31.779Z,97897.02
2022-12-08T06:02:34.434Z,97897.54
2022-12-08T06:03:36.364Z,97900.88
2022-12-08T06:04:38.202Z,97906.03
2022-12-08T06:05:45.673Z,97907.05
2022-12-08T06:06:47.538Z,97909.23
2022-12-08T06:07:49.385Z,97909.36
2022-12-08T06:08:51.570Z,97913.17
2022-12-08T06:09:53.322Z,97916.03
2022-12-08T06:10:55.065Z,97915.77
2022-12-08T06:11:56.814Z,97917.30
2022-12-08T06:12:58.599Z,97914.42
2022-12-08T06:14:01.089Z,97921.58
2022-12-08T06:15:02.926Z,97916.56
2022-12-08T06:16:06.297Z,97918.55
2022-12-08T06:17:08.088Z,97919.33
2022-12-08T06:18:11.299Z,97916.65
2022-12-08T06:19:13.139Z,97914.24
2022-12-08T06:20:15.190Z,97914.77
2022-12-08T06:21:17.753Z,97912.71
2022-12-08T06:22:19.594Z,97912.29
2022-12-08T06:23:21.495Z,97914.68
2022-12-08T06:24:23.386Z,97917.03
2022-12-08T06:25:25.269Z,97917.80
2022-12-08T06:26:27.039Z,97919.58
2022-12-08T06:27:28.834Z,97919.23
2022-12-08T06:28:31.276Z,97917.75
2022-12-08T06:29:33.071Z,97920.27
2022-12-08T06:30:35.424Z,97921.92
2022-12-08T06:31:37.220Z,97924.92
2022-12-08T06:32:39.118Z,97921.94
2022-12-08T06:33:41.084Z,97923.52
2022-12-08T06:34:43.259Z,97926.25
2022-12-08T06:35:45.027Z,97925.02
2022-12-08T06:36:46.786Z,97927.37
2022-12-08T06:37:48.967Z,97930.64
2022-12-08T06:38:51.826Z,97928.00
2022-12-08T06:39:53.571Z,97926.24
2022-12-08T06:40:57.290Z,97926.98
2022-12-08T06:42:17.614Z,97924.33
2022-12-08T06:43:19.397Z,97929.65
2022-12-08T06:44:21.218Z,97925.86
2022-12-08T06:45:23.048Z,97929.66
2022-12-08T06:46:24.979Z,97928.19
2022-12-08T06:47:26.922Z,97927.23
2022-12-08T06:48:28.679Z,97931.83
2022-12-08T06:49:30.428Z,97933.89
2022-12-08T06:50:35.103Z,97933.59
2022-12-08T06:51:36.841Z,97932.48
2022-12-08T06:52:47.356Z,97935.88
2022-12-08T06:53:54.955Z,97938.85
2022-12-08T06:54:56.687Z,97935.94
2022-12-08T06:55:59.826Z,97934.86
2022-12-08T06:57:01.860Z,97936.86
2022-12-08T06:58:03.917Z,97939.02
2022-12-08T06:59:05.689Z,97937.95
2022-12-08T07:00:08.499Z,97939.64
2022-12-08T07:01:13.310Z,97940.55
2022-12-08T07:02:15.410Z,97942.43
2022-12-08T07:03:17.392Z,97941.46
2022-12-08T07:04:19.185Z,97941.99
2022-12-08T07:05:21.027Z,97944.12
2022-12-08T07:06:24.975Z,97938.45
2022-12-08T07:07:26.751Z,97940.55
2022-12-08T07:08:28.550Z,97936.48
2022-12-08T07:09:30.324Z,97931.80
2022-12-08T07:10:32.202Z,97931.27
2022-12-08T07:11:34.035Z,97927.48
2022-12-08T07:12:35.734Z,97926.92
2022-12-08T07:13:37.887Z,97926.73
2022-12-08T07:14:39.671Z,97926.73
2022-12-08T07:15:41.468Z,97926.32
2022-12-08T07:16:43.371Z,97930.24
2022-12-08T07:17:45.274Z,97934.65
2022-12-08T07:18:47.104Z,97938.13
2022-12-08T07:19:48.825Z,97938.45
2022-12-08T07:20:50.581Z,97941.11
2022-12-08T07:21:52.911Z,97940.71
2022-12-08T07:22:54.769Z,97942.14
2022-12-08T07:23:58.005Z,97936.11
2022-12-08T07:24:59.997Z,97936.52
2022-12-08T07:26:04.101Z,97935.02
2022-12-08T07:27:06.019Z,97937.58
2022-12-08T07:28:09.758Z,97932.87
2022-12-08T07:29:11.726Z,97936.14
2022-12-08T07:30:15.044Z,97937.67
2022-12-08T07:31:22.297Z,97935.39
2022-12-08T07:32:24.388Z,97937.84
2022-12-08T07:33:26.959Z,97939.61
2022-12-08T07:34:28.735Z,97935.38
2022-12-08T07:35:30.603Z,97936.42
2022-12-08T07:36:32.939Z,97936.58
2022-12-08T07:37:36.233Z,97937.88
2022-12-08T07:38:38.042Z,97936.56
2022-12-08T07:39:39.876Z,97936.87
2022-12-08T07:40:41.602Z,97939.95
2022-12-08T07:41:43.364Z,97941.50
2022-12-08T07:42:45.161Z,97939.89
2022-12-08T07:43:47.722Z,97938.45
2022-12-08T07:44:49.490Z,97941.42
2022-12-08T07:45:51.778Z,97938.71
2022-12-08T07:46:53.828Z,97941.52
2022-12-08T07:47:55.643Z,97936.39
2022-12-08T07:48:57.514Z,97939.06
2022-12-08T07:49:59.224Z,97936.95
2022-12-08T07:51:02.711Z,97937.52
2022-12-08T07:52:04.507Z,97937.40
2022-12-08T07:53:06.824Z,97938.05
2022-12-08T07:54:12.664Z,97937.60
2022-12-08T07:55:14.426Z,97938.48
2022-12-08T07:56:16.778Z,97933.21
2022-12-08T07:57:18.680Z,97929.26
2022-12-08T07:58:20.437Z,97934.25
2022-12-08T07:59:22.187Z,97931.21
2022-12-08T08:00:24.006Z,97926.02
2022-12-08T08:01:30.031Z,97926.58
2022-12-08T08:02:32.144Z,97925.27
2022-12-08T08:03:33.924Z,97923.04
2022-12-08T08:04:35.760Z,97924.17
2022-12-08T08:05:37.852Z,97923.91
2022-12-08T08:06:39.652Z,97924.13
2022-12-08T08:07:43.616Z,97925.81
2022-12-08T08:08:45.450Z,97924.64
2022-12-08T08:09:47.261Z,97924.65
2022-12-08T08:10:49.005Z,97929.77
2022-12-08T08:12:14.410Z,97931.38
2022-12-08T08:13:12.455Z,97932.37
2022-12-08T08:14:14.355Z,97934.39
2022-12-08T08:15:17.443Z,97933.52
2022-12-08T08:16:20.515Z,97930.27
2022-12-08T08:17:22.447Z,97932.59
2022-12-08T08:18:24.310Z,97931.30
2022-12-08T08:19:26.059Z,97929.73
2022-12-08T08:20:27.853Z,97929.24
2022-12-08T08:21:44.867Z,97933.07
2022-12-08T08:22:49.767Z,97934.70
2022-12-08T08:23:51.557Z,97935.90
2022-12-08T08:24:53.621Z,97937.27
2022-12-08T08:25:55.679Z,97941.48
2022-12-08T08:26:57.490Z,97937.68
2022-12-08T08:27:59.302Z,97940.41
2022-12-08T08:29:01.054Z,97938.91
2022-12-08T08:30:06.451Z,97939.39
2022-12-08T08:31:08.747Z,97943.23
2022-12-08T08:32:10.950Z,97944.23
2022-12-08T08:33:13.717Z,97939.05
2022-12-08T08:34:15.808Z,97940.73
2022-12-08T08:35:18.241Z,97942.36
2022-12-08T08:36:22.050Z,97939.95
2022-12-08T08:37:23.965Z,97940.14
2022-12-08T08:38:26.064Z,97941.65
2022-12-08T08:39:27.939Z,97939.71
2022-12-08T08:40:29.706Z,97942.33
2022-12-08T08:41:31.794Z,97942.94
2022-12-08T08:42:33.621Z,97947.91
2022-12-08T08:43:38.359Z,97949.98
2022-12-08T08:44:40.777Z,97949.92
2022-12-08T08:45:42.530Z,97951.96
2022-12-08T08:46:44.531Z,97951.14
2022-12-08T08:47:46.862Z,97952.27
2022-12-08T08:48:49.270Z,97952.98
2022-12-08T08:49:50.997Z,97951.40
2022-12-08T08:50:53.230Z,97951.30
2022-12-08T08:51:54.966Z,97952.08
2022-12-08T08:52:56.690Z,97953.48
2022-12-08T08:53:59.363Z,97951.55
2022-12-08T08:55:01.155Z,97950.80
2022-12-08T08:56:05.158Z,97949.89
2022-12-08T08:57:06.950Z,97944.67
2022-12-08T08:58:08.740Z,97943.30
2022-12-08T08:59:10.933Z,97942.95
2022-12-08T09:00:13.399Z,97941.21
2022-12-08T09:01:21.702Z,97939.50
2022-12-08T09:02:23.520Z,97938.90
2022-12-08T09:03:25.361Z,97939.42
2022-12-08T09:04:27.180Z,97938.33
2022-12-08T09:05:29.064Z,97938.36
2022-12-08T09:06:31.612Z,97937.29
2022-12-08T09:07:33.545Z,97940.81
2022-12-08T09:08:35.280Z,97941.92
2022-12-08T09:09:37.609Z,97937.90
2022-12-08T09:10:39.567Z,97937.77
2022-12-08T09:11:41.300Z,97937.23
2022-12-08T09:12:43.157Z,97935.66
2022-12-08T09:13:48.988Z,97931.77
2022-12-08T09:14:50.717Z,97930.26
2022-12-08T09:15:52.611Z,97929.83
2022-12-08T09:16:54.480Z,97928.59
2022-12-08T09:17:56.327Z,97925.38
2022-12-08T09:18:58.077Z,97925.35
2022-12-08T09:20:01.435Z,97925.66
2022-12-08T09:21:08.798Z,97923.35
2022-12-08T09:22:10.627Z,97922.67
2022-12-08T09:23:12.496Z,97922.14
2022-12-08T09:24:16.817Z,97926.59
2022-12-08T09:25:18.558Z,97921.50
2022-12-08T09:26:22.994Z,97925.39
2022-12-08T09:27:24.773Z,97924.23
2022-12-08T09:28:26.641Z,97920.95
2022-12-08T09:29:33.994Z,97923.61
2022-12-08T09:30:37.591Z,97920.23
2022-12-08T09:31:39.511Z,97916.38
2022-12-08T09:32:41.454Z,97918.41
2022-12-08T09:33:43.232Z,97916.39
2022-12-08T09:34:50.457Z,97916.46
2022-12-08T09:35:53.726Z,97911.70
2022-12-08T09:36:55.492Z,97917.49
2022-12-08T09:37:57.612Z,97913.04
2022-12-08T09:38:59.531Z,97913.64
2022-12-08T09:40:01.937Z,97912.42
2022-12-08T09:41:36.499Z,97910.14
2022-12-08T09:42:55.943Z,97908.10
2022-12-08T09:44:03.456Z,97904.25
2022-12-08T09:45:12.499Z,97905.35
2022-12-08T09:46:18.859Z,97903.83
2022-12-08T09:47:54.863Z,97903.91
2022-12-08T09:49:00.934Z,97901.60
2022-12-08T09:50:09.775Z,97901.13
2022-12-08T09:51:15.691Z,97905.28
2022-12-08T09:52:29.807Z,97900.84
2022-12-08T09:53:42.322Z,97900.77
2022-12-08T09:54:44.146Z,97897.40
2022-12-08T09:56:06.998Z,97897.00
2022-12-08T09:57:17.129Z,97896.17
2022-12-08T09:58:32.532Z,97897.91
2022-12-08T09:59:35.600Z,97893.66
2022-12-08T10:00:37.427Z,97896.27
2022-12-08T10:01:43.842Z,97897.23
2022-12-08T10:02:47.647Z,97897.80
2022-12-08T10:03:50.042Z,97892.53
2022-12-08T10:04:56.070Z,97889.45
2022-12-08T10:06:30.149Z,97892.90
2022-12-08T10:07:42.801Z,97887.92
2022-12-08T10:09:22.640Z,97888.77
2022-12-08T10:10:39.591Z,97882.60
2022-12-08T10:12:11.897Z,97888.81
2022-12-08T10:13:46.249Z,97883.04
2022-12-08T10:15:23.361Z,97880.90
2022-12-08T10:16:35.842Z,97879.86
2022-12-08T10:17:50.250Z,97876.73
2022-12-08T10:19:10.252Z,97877.59
2022-12-08T10:20:17.206Z,97877.80
2022-12-08T10:21:25.971Z,97871.05
2022-12-08T10:22:37.683Z,97871.17
2022-12-08T10:23:50.246Z,97868.86
2022-12-08T10:25:11.385Z,97873.05
2022-12-08T10:26:17.485Z,97868.14
2022-12-08T10:27:20.425Z,97869.57
2022-12-08T10:28:22.229Z,97869.70
2022-12-08T10:29:24.041Z,97870.49
2022-12-08T10:30:25.859Z,97869.04
2022-12-08T10:31:27.857Z,97867.38
2022-12-08T10:32:35.430Z,97867.11
2022-12-08T10:33:37.148Z,97865.48
2022-12-08T10:35:03.462Z,97861.96
2022-12-08T10:36:05.449Z,97861.84
2022-12-08T10:37:10.375Z,97858.08
2022-12-08T10:38:35.326Z,97857.70
2022-12-08T10:39:45.648Z,97860.56
2022-12-08T10:40:51.211Z,97858.13
2022-12-08T10:41:53.039Z,97857.89
2022-12-08T10:42:59.792Z,97857.90
2022-12-08T10:44:02.046Z,97863.23
2022-12-08T10:45:10.074Z,97863.86
2022-12-08T10:46:22.443Z,97862.65
2022-12-08T10:47:27.637Z,97862.44
2022-12-08T10:48:34.102Z,97856.05
2022-12-08T10:49:38.655Z,97853.45
2022-12-08T10:50:47.820Z,97854.46
2022-12-08T10:51:50.245Z,97857.02
2022-12-08T10:52:58.435Z,97852.81
2022-12-08T10:54:01.494Z,97855.53
2022-12-08T10:55:03.692Z,97854.36
2022-12-08T10:56:14.221Z,97847.57
2022-12-08T10:57:25.393Z,97848.66
2022-12-08T10:58:30.943Z,97847.36
2022-12-08T10:59:34.018Z,97847.16
2022-12-08T11:00:40.225Z,97844.73
2022-12-08T11:01:47.264Z,97846.23
2022-12-08T11:03:00.375Z,97847.81
2022-12-08T11:04:07.074Z,97852.23
2022-12-08T11:05:18.505Z,97854.20
2022-12-08T11:06:26.062Z,97853.57
2022-12-08T11:07:28.620Z,97851.59
2022-12-08T11:08:30.659Z,97854.33
2022-12-08T11:09:48.208Z,97853.90
2022-12-08T11:10:50.113Z,97851.45
2022-12-08T11:11:59.870Z,97850.86
2022-12-08T11:13:05.584Z,97848.79
2022-12-08T11:14:08.637Z,97848.47
2022-12-08T11:15:17.441Z,97849.43
2022-12-08T11:16:20.320Z,97846.50
2022-12-08T11:17:22.014Z,97845.75
2022-12-08T11:18:29.122Z,97844.09
2022-12-08T11:19:31.048Z,97839.90
2022-12-08T11:20:41.914Z,97838.75
2022-12-08T11:21:44.574Z,97837.96
2022-12-08T11:22:53.221Z,97836.10
2022-12-08T11:23:54.950Z,97838.25
2022-12-08T11:25:03.243Z,97838.23
2022-12-08T11:26:32.219Z,97837.98
2022-12-08T11:27:36.973Z,97836.36
2022-12-08T11:28:39.578Z,97838.13
2022-12-08T11:29:41.956Z,97836.34
2022-12-08T11:30:54.389Z,97840.30
2022-12-08T11:32:02.589Z,97835.18
2022-12-08T11:33:22.015Z,97836.02
2022-12-08T11:35:03.283Z,97836.63
2022-12-08T11:36:12.008Z,97838.52
2022-12-08T11:37:35.043Z,97835.63
2022-12-08T11:38:43.653Z,97832.05
2022-12-08T11:39:51.590Z,97833.36
2022-12-08T11:41:01.644Z,97833.30
2022-12-08T11:42:08.225Z,97835.75
2022-12-08T11:43:21.949Z,97831.61
2022-12-08T11:44:42.280Z,97829.95
2022-12-08T11:45:44.448Z,97827.30
2022-12-08T11:46:48.886Z,97821.32
2022-12-08T11:48:17.162Z,97825.67
2022-12-08T11:49:20.621Z,97819.11
2022-12-08T11:50:31.552Z,97823.28
2022-12-08T11:51:49.813Z,97818.75
2022-12-08T11:52:52.300Z,97822.84
2022-12-08T11:54:22.504Z,97817.47
2022-12-08T11:55:41.635Z,97818.98
2022-12-08T11:56:54.102Z,97816.13
2022-12-08T11:58:04.117Z,97819.75
2022-12-08T11:59:18.794Z,97818.99
2022-12-08T12:00:20.646Z,97822.38
2022-12-08T12:01:26.374Z,97819.58
2022-12-08T12:02:32.256Z,97820.76
2022-12-08T12:03:43.679Z,97820.05
2022-12-08T12:05:10.868Z,97819.20
2022-12-08T12:06:56.546Z,97815.02
2022-12-08T12:08:34.250Z,97814.19
2022-12-08T12:09:54.772Z,97811.77
2022-12-08T12:11:58.099Z,97810.91
2022-12-08T12:13:34.735Z,97809.70
2022-12-08T12:15:01.112Z,97810.08
2022-12-08T12:16:11.903Z,97806.45
2022-12-08T12:17:51.020Z,97808.48
2022-12-08T12:19:05.164Z,97806.98
2022-12-08T12:20:31.980Z,97807.33
2022-12-08T12:21:36.203Z,97806.79
2022-12-08T12:22:38.468Z,97807.19
2022-12-08T12:23:46.672Z,97806.98
2022-12-08T12:24:52.062Z,97807.46
2022-12-08T12:26:04.002Z,97805.85
2022-12-08T12:27:27.553Z,97804.45
2022-12-08T12:28:43.237Z,97807.48
2022-12-08T12:30:03.083Z,97806.43
2022-12-08T12:31:17.942Z,97810.57
2022-12-08T12:32:21.213Z,97809.80
2022-12-08T12:33:23.873Z,97804.30
2022-12-08T12:34:34.938Z,97805.04
2022-12-08T12:35:43.536Z,97803.21
2022-12-08T12:37:07.039Z,97804.30
2022-12-08T12:38:55.840Z,97798.59
2022-12-08T12:40:06.079Z,97800.13
2022-12-08T12:41:10.685Z,97795.65
2022-12-08T12:42:37.037Z,97793.40
2022-12-08T12:43:39.854Z,97792.14
2022-12-08T12:44:43.411Z,97796.80
2022-12-08T12:45:45.752Z,97793.89
2022-12-08T12:46:50.297Z,97791.86
2022-12-08T12:48:00.779Z,97791.23
2022-12-08T12:49:40.412Z,97792.55
2022-12-08T12:50:45.310Z,97789.55
2022-12-08T12:51:54.308Z,97786.20
2022-12-08T12:52:56.321Z,97783.31
2022-12-08T12:54:24.878Z,97789.11
2022-12-08T12:55:49.019Z,97787.31
2022-12-08T12:56:54.805Z,97785.80
2022-12-08T12:57:58.824Z,97784.69
2022-12-08T12:59:29.446Z,97788.79
2022-12-08T13:00:31.250Z,97782.61